Time;durP1;ratioP1;P1;durP2;ratioP2;P2;SDS_P1;SDS_P2;PMS_P1;PMS_P2;Temp;Humidity;BMP_temperature;BMP_pressure;BME280_temperature;BME280_humidity;BME280_pressure;Samples;Min_cycle;Max_cycle;Signal;HPM_P1;HPM_P2
2022/11/14 00:02:06;;;;;;;61.72;28.35;;;;;;;6.82;85.25;100899.34;5033975;28;20017;-37
2022/11/14 00:04:31;;;;;;;42.15;21.58;;;;;;;6.79;86.63;100906.75;5033723;28;20029;-37
2022/11/14 00:06:57;;;;;;;39.75;21.48;;;;;;;6.81;87.21;100900.31;5033937;28;20029;-37
2022/11/14 00:09:26;;;;;;;62.72;27.42;;;;;;;7.56;85.93;100901.78;5033730;28;20086;-37
2022/11/14 00:11:52;;;;;;;56.00;25.60;;;;;;;7.26;85.69;100897.75;5033794;28;20026;-37
2022/11/14 00:14:18;;;;;;;49.55;24.75;;;;;;;6.97;85.47;100894.38;5033227;28;20099;-37
2022/11/14 00:16:43;;;;;;;53.58;25.90;;;;;;;6.82;86.22;100895.88;5033540;28;20036;-36
2022/11/14 00:19:08;;;;;;;49.65;24.40;;;;;;;6.70;86.72;100900.56;5033468;28;20047;-37
2022/11/14 00:21:34;;;;;;;58.25;28.75;;;;;;;6.63;87.04;100883.63;5033480;28;20477;-37
2022/11/14 00:23:59;;;;;;;78.65;35.58;;;;;;;6.62;87.58;100895.19;5033148;28;20041;-37
2022/11/14 00:26:25;;;;;;;73.05;33.78;;;;;;;6.71;87.89;100882.88;5033277;28;20032;-37
2022/11/14 00:28:50;;;;;;;86.50;37.78;;;;;;;6.65;87.82;100890.41;5033662;28;20068;-37
2022/11/14 00:31:15;;;;;;;66.18;33.67;;;;;;;6.62;87.41;100881.94;5033405;28;20589;-37
2022/11/14 00:33:41;;;;;;;62.20;33.53;;;;;;;6.55;87.53;100884.38;5033365;28;20185;-37
2022/11/14 00:36:06;;;;;;;45.47;25.40;;;;;;;6.54;87.04;100881.88;5033216;28;20023;-37
2022/11/14 00:38:32;;;;;;;37.95;21.77;;;;;;;6.44;88.29;100879.28;5032762;28;20486;-36
2022/11/14 00:40:57;;;;;;;37.22;20.95;;;;;;;6.44;87.80;100868.72;5033072;28;20069;-37
2022/11/14 00:43:23;;;;;;;36.15;19.67;;;;;;;6.30;88.43;100869.22;5032814;28;20032;-37
2022/11/14 00:45:48;;;;;;;36.22;20.13;;;;;;;6.44;87.61;100868.72;5033055;28;20108;-37
2022/11/14 00:48:14;;;;;;;36.92;20.73;;;;;;;6.45;86.88;100871.22;5033382;28;20021;-36
2022/11/14 00:50:40;;;;;;;36.58;19.88;;;;;;;6.55;86.93;100865.00;5032625;28;20095;-36
2022/11/14 00:53:06;;;;;;;39.10;20.92;;;;;;;6.39;86.28;100861.22;5032958;28;20029;-37
2022/11/14 00:55:31;;;;;;;38.40;20.90;;;;;;;6.24;87.15;100862.69;5032855;28;20032;-37
2022/11/14 00:57:56;;;;;;;35.75;20.55;;;;;;;6.22;87.30;100860.19;5032999;28;20024;-36
2022/11/14 01:00:22;;;;;;;35.40;20.05;;;;;;;6.06;88.18;100857.38;5032961;28;20394;-36
2022/11/14 01:02:47;;;;;;;44.67;22.95;;;;;;;6.01;87.86;100852.50;5032494;28;20114;-37
2022/11/14 01:05:13;;;;;;;46.50;24.15;;;;;;;6.02;87.72;100851.56;5032577;28;20030;-37
2022/11/14 01:07:38;;;;;;;48.08;23.50;;;;;;;6.10;87.86;100850.81;5031717;28;20032;-36
2022/11/14 01:10:04;;;;;;;48.03;23.17;;;;;;;6.04;88.21;100849.59;5032569;28;20104;-36
2022/11/14 01:12:30;;;;;;;47.55;23.02;;;;;;;6.07;88.04;100851.09;5032329;28;20081;-36
2022/11/14 01:14:55;;;;;;;45.80;22.50;;;;;;;6.17;88.50;100854.53;5032878;28;20033;-36
2022/11/14 01:17:21;;;;;;;35.10;19.55;;;;;;;6.12;88.77;100856.78;5032681;28;20100;-37
2022/11/14 01:19:46;;;;;;;43.97;21.83;;;;;;;6.08;89.09;100850.13;5032472;28;20029;-36
2022/11/14 01:22:12;;;;;;;41.35;21.20;;;;;;;6.12;88.77;100845.38;5033062;28;20052;-40
2022/11/14 01:24:37;;;;;;;38.45;20.80;;;;;;;6.11;88.46;100841.91;5032329;28;20038;-36
2022/11/14 01:27:03;;;;;;;39.88;21.15;;;;;;;6.12;88.73;100842.75;5032411;28;20021;-36
2022/11/14 01:29:29;;;;;;;40.05;21.27;;;;;;;6.00;88.92;100840.31;5032201;28;20022;-36
2022/11/14 01:31:54;;;;;;;45.92;21.73;;;;;;;6.20;88.29;100841.00;5032263;28;20044;-35
2022/11/14 01:34:20;;;;;;;35.88;19.30;;;;;;;5.99;89.40;100822.78;5032220;28;20401;-36
2022/11/14 01:36:46;;;;;;;36.05;20.38;;;;;;;6.07;89.20;100835.25;5031981;28;20029;-37
2022/11/14 01:39:11;;;;;;;49.88;23.45;;;;;;;6.22;88.51;100832.94;5032193;28;20034;-37
2022/11/14 01:41:36;;;;;;;39.15;19.73;;;;;;;6.15;88.54;100837.16;5032203;28;20220;-36
2022/11/14 01:44:02;;;;;;;40.75;20.73;;;;;;;6.11;88.96;100841.06;5032391;28;20048;-36
2022/11/14 01:46:35;;;;;;;45.22;21.45;;;;;;;6.05;89.04;100834.56;5032577;28;20032;-36
2022/11/14 01:49:01;;;;;;;65.90;32.47;;;;;;;6.07;88.77;100837.88;5032646;28;20147;-36
2022/11/14 01:52:02;;;;;;;242.00;112.03;;;;;;;6.05;88.65;100826.63;5032826;28;20398;-36
2022/11/14 01:54:31;;;;;;;130.25;69.82;;;;;;;5.90;88.64;100836.81;5027867;28;20038;-36
2022/11/14 01:57:02;;;;;;;99.57;53.38;;;;;;;5.97;88.78;100830.00;5032675;28;20029;-36
2022/11/14 01:59:38;;;;;;;75.30;41.45;;;;;;;5.97;88.49;100821.25;5031947;28;20029;-37
2022/11/14 02:02:11;;;;;;;118.80;68.72;;;;;;;5.92;87.73;100828.75;5032063;28;20040;-37
2022/11/14 02:04:43;;;;;;;92.55;51.25;;;;;;;5.85;88.48;100825.88;5032283;28;20060;-37
2022/11/14 02:07:11;;;;;;;95.40;49.28;;;;;;;5.86;88.31;100825.75;5032189;28;20127;-37
2022/11/14 02:09:39;;;;;;;40.78;23.25;;;;;;;5.74;87.56;100818.97;5032315;28;20048;-37
2022/11/14 02:12:08;;;;;;;94.57;51.85;;;;;;;5.58;88.51;100816.97;5032293;28;20036;-36
2022/11/14 02:14:36;;;;;;;95.22;51.17;;;;;;;5.64;88.52;100821.66;5030595;28;20358;-36
2022/11/14 02:17:02;;;;;;;59.05;34.33;;;;;;;5.69;89.27;100813.28;5032116;28;20025;-36
2022/11/14 02:19:52;;;;;;;66.93;36.58;;;;;;;5.73;89.03;100814.69;5032093;28;20030;-36
2022/11/14 02:22:17;;;;;;;44.25;24.50;;;;;;;5.69;89.67;100818.56;5031910;28;20136;-37
2022/11/14 02:24:43;;;;;;;47.22;25.60;;;;;;;5.72;88.55;100791.03;5032058;28;20025;-36
2022/11/14 02:27:10;;;;;;;44.40;24.60;;;;;;;5.70;88.68;100803.56;5031872;28;20034;-37
2022/11/14 02:29:36;;;;;;;35.97;22.15;;;;;;;5.73;88.77;100812.03;5031520;28;20036;-36
2022/11/14 02:32:02;;;;;;;48.90;28.02;;;;;;;5.65;88.96;100807.47;5031741;28;20398;-36
2022/11/14 02:34:28;;;;;;;37.72;21.45;;;;;;;5.66;88.44;100798.56;5031845;28;20025;-36
2022/11/14 02:36:54;;;;;;;39.10;22.58;;;;;;;5.67;88.34;100802.88;5031938;28;20056;-36
2022/11/14 02:39:20;;;;;;;37.17;21.60;;;;;;;5.89;87.89;100800.81;5031725;28;20128;-37
2022/11/14 02:41:45;;;;;;;40.33;22.73;;;;;;;5.79;87.91;100805.34;5031964;28;20482;-37
2022/11/14 02:44:10;;;;;;;40.65;23.00;;;;;;;5.70;87.94;100803.56;5031578;28;20025;-37
2022/11/14 02:46:36;;;;;;;30.48;18.65;;;;;;;5.57;87.94;100796.78;5031317;28;20379;-36
2022/11/14 02:49:01;;;;;;;63.47;35.85;;;;;;;5.60;88.34;100803.63;5031715;28;20035;-36
2022/11/14 02:51:27;;;;;;;70.13;42.25;;;;;;;5.49;88.46;100802.81;5031520;28;20033;-36
2022/11/14 02:53:52;;;;;;;57.22;33.25;;;;;;;5.57;88.95;100804.72;5031288;28;20022;-37
2022/11/14 02:56:18;;;;;;;44.03;28.35;;;;;;;5.59;88.13;100801.94;5031086;28;20091;-37
2022/11/14 02:58:43;;;;;;;66.05;38.05;;;;;;;5.59;88.24;100801.94;5029739;28;20434;-37
2022/11/14 03:01:08;;;;;;;48.88;29.75;;;;;;;5.52;88.13;100801.69;5030925;28;20031;-37
2022/11/14 03:03:34;;;;;;;36.67;21.80;;;;;;;5.59;88.08;100807.22;5031066;28;20029;-37
2022/11/14 03:06:00;;;;;;;39.13;23.75;;;;;;;5.59;87.75;100804.56;5030481;28;20448;-36
2022/11/14 03:08:26;;;;;;;36.20;21.80;;;;;;;5.62;86.96;100806.94;5030630;28;20081;-37
2022/11/14 03:10:52;;;;;;;47.83;26.08;;;;;;;5.54;88.14;100804.16;5030601;28;20167;-37
2022/11/14 03:13:17;;;;;;;43.38;25.27;;;;;;;5.47;87.98;100812.69;5030768;28;20690;-36
2022/11/14 03:15:43;;;;;;;54.42;29.17;;;;;;;5.37;88.27;100811.88;5030247;28;20465;-37
2022/11/14 03:18:08;;;;;;;34.45;20.05;;;;;;;5.38;88.30;100816.16;5030634;28;20025;-37
2022/11/14 03:20:34;;;;;;;37.78;20.52;;;;;;;5.41;89.10;100813.25;5030727;28;20025;-38
2022/11/14 03:22:59;;;;;;;49.35;25.60;;;;;;;5.52;88.68;100816.69;5030611;28;20053;-37
2022/11/14 03:25:25;;;;;;;43.70;23.88;;;;;;;5.46;87.96;100815.44;5030644;28;20026;-37
2022/11/14 03:27:51;;;;;;;45.55;24.95;;;;;;;5.44;88.47;100815.59;5030760;28;20103;-37
2022/11/14 03:30:16;;;;;;;42.78;22.90;;;;;;;5.49;88.11;100823.09;5030465;28;20033;-37
2022/11/14 03:32:41;;;;;;;43.33;22.33;;;;;;;5.52;87.66;100817.53;5030509;28;20054;-36
2022/11/14 03:35:07;;;;;;;31.70;17.30;;;;;;;5.59;88.01;100815.13;5030763;28;20025;-36
2022/11/14 03:37:33;;;;;;;29.70;18.20;;;;;;;5.56;87.49;100818.06;5030737;28;20027;-36
2022/11/14 03:39:58;;;;;;;30.42;18.15;;;;;;;5.47;87.73;100812.69;5030433;28;20492;-36
2022/11/14 03:42:24;;;;;;;41.70;21.50;;;;;;;5.39;87.65;100812.56;5030374;28;20035;-37
2022/11/14 03:44:49;;;;;;;36.28;20.13;;;;;;;5.31;87.64;100814.25;5029882;28;20029;-37
2022/11/14 03:47:14;;;;;;;34.85;20.10;;;;;;;5.16;88.17;100811.22;5030437;28;20029;-36
2022/11/14 03:49:40;;;;;;;35.40;19.80;;;;;;;5.17;88.09;100807.63;5036912;28;20075;-37
2022/11/14 03:52:05;;;;;;;36.85;21.17;;;;;;;5.14;87.88;100803.47;5035263;28;20033;-37
2022/11/14 03:54:31;;;;;;;31.33;18.38;;;;;;;5.34;87.47;100808.69;5030228;28;20087;-37
2022/11/14 03:56:56;;;;;;;28.52;16.23;;;;;;;4.98;87.54;100782.94;5030217;28;20103;-37
2022/11/14 03:59:21;;;;;;;30.38;16.40;;;;;;;5.19;88.45;100810.94;5030459;28;20104;-37
2022/11/14 04:01:47;;;;;;;27.98;16.02;;;;;;;4.98;87.39;100809.31;5030295;28;20030;-37
2022/11/14 04:04:13;;;;;;;28.67;16.25;;;;;;;4.98;87.65;100814.59;5030596;28;20117;-37
2022/11/14 04:06:39;;;;;;;42.40;21.65;;;;;;;4.89;88.21;100812.78;5030871;28;20100;-37
2022/11/14 04:09:05;;;;;;;44.25;23.13;;;;;;;4.86;88.59;100810.44;5030313;28;20025;-37
2022/11/14 04:11:31;;;;;;;66.97;36.35;;;;;;;4.93;88.41;100811.56;5030800;28;20033;-37
2022/11/14 04:13:56;;;;;;;84.95;44.97;;;;;;;4.92;88.13;100801.97;5030407;28;20032;-36
2022/11/14 04:16:21;;;;;;;89.75;48.05;;;;;;;4.93;87.77;100814.19;5030204;28;20038;-37
2022/11/14 04:18:47;;;;;;;84.10;41.50;;;;;;;4.74;88.18;100809.78;5030362;28;20040;-35
2022/11/14 04:21:12;;;;;;;32.33;18.55;;;;;;;4.67;88.71;100806.84;5030693;28;20022;-35
2022/11/14 04:23:38;;;;;;;62.88;31.75;;;;;;;4.70;88.44;100808.34;5030095;28;20482;-36
2022/11/14 04:26:03;;;;;;;41.97;22.40;;;;;;;4.56;89.03;100799.06;5030263;28;20044;-36
2022/11/14 04:28:29;;;;;;;51.30;23.65;;;;;;;4.56;88.82;100803.53;5030703;28;20033;-35
2022/11/14 04:30:54;;;;;;;41.50;22.30;;;;;;;4.56;88.96;100798.25;5034698;28;20454;-35
2022/11/14 04:33:20;;;;;;;33.53;18.08;;;;;;;4.53;89.55;100804.59;5049661;28;20443;-36
2022/11/14 04:35:45;;;;;;;36.05;17.20;;;;;;;4.65;89.05;100808.78;5049536;28;20028;-36
2022/11/14 04:38:10;;;;;;;32.08;17.33;;;;;;;4.76;90.34;100810.47;5036323;28;20699;-36
2022/11/14 04:40:36;;;;;;;29.85;15.75;;;;;;;4.55;90.31;100807.97;5029479;28;20109;-37
2022/11/14 04:43:01;;;;;;;28.42;16.60;;;;;;;4.45;91.15;100812.38;5029703;28;20021;-36
2022/11/14 04:45:27;;;;;;;32.15;17.02;;;;;;;4.47;91.38;100803.38;5032946;28;20526;-35
2022/11/14 04:47:52;;;;;;;31.40;16.88;;;;;;;5.15;92.24;100817.50;5032246;28;20405;-36
2022/11/14 04:50:18;;;;;;;31.13;16.55;;;;;;;5.02;89.22;100815.16;5032395;28;20111;-36
2022/11/14 04:52:43;;;;;;;220.80;110.97;;;;;;;4.90;90.21;100806.56;5032307;28;20461;-36
2022/11/14 04:55:09;;;;;;;219.95;108.88;;;;;;;4.89;90.23;100811.00;5032298;28;20025;-35
2022/11/14 04:57:34;;;;;;;205.95;99.80;;;;;;;4.79;88.68;100810.16;5032258;28;20025;-35
2022/11/14 05:00:00;;;;;;;143.82;62.85;;;;;;;4.69;90.50;100806.72;5033183;28;20029;-37
2022/11/14 05:02:25;;;;;;;59.30;28.90;;;;;;;4.71;89.99;100791.56;5033350;28;20033;-36
2022/11/14 05:04:50;;;;;;;48.55;23.70;;;;;;;4.61;88.29;100802.13;5032208;28;20029;-34
2022/11/14 05:07:16;;;;;;;31.42;16.67;;;;;;;4.63;88.01;100818.66;5032681;28;20030;-36
2022/11/14 05:09:41;;;;;;;31.58;17.17;;;;;;;4.46;87.64;100832.50;5032570;28;20017;-36
2022/11/14 05:12:07;;;;;;;54.70;27.77;;;;;;;4.41;87.50;100827.63;5032993;28;20021;-36
2022/11/14 05:14:32;;;;;;;83.95;45.28;;;;;;;4.39;88.47;100826.13;5032516;28;20024;-36
2022/11/14 05:16:58;;;;;;;75.13;37.83;;;;;;;4.17;88.59;100835.94;5032912;28;20106;-38
2022/11/14 05:19:23;;;;;;;72.53;36.67;;;;;;;4.15;89.12;100826.47;5033103;28;20021;-37
2022/11/14 05:21:49;;;;;;;69.97;34.83;;;;;;;4.41;88.70;100838.19;5032378;28;20029;-37
2022/11/14 05:24:14;;;;;;;61.45;31.13;;;;;;;4.85;92.48;100837.78;5031636;28;20091;-35
2022/11/14 05:26:40;;;;;;;60.70;32.22;;;;;;;5.20;91.96;100837.22;5030579;28;20022;-35
2022/11/14 05:29:05;;;;;;;128.93;60.72;;;;;;;4.97;86.67;100834.03;5031117;28;20405;-37
2022/11/14 05:31:31;;;;;;;53.92;27.50;;;;;;;5.90;87.17;100844.75;5032177;28;20032;-37
2022/11/14 05:33:56;;;;;;;41.55;21.75;;;;;;;6.80;84.43;100850.22;5032585;28;20017;-37
2022/11/14 05:36:22;;;;;;;38.80;21.35;;;;;;;7.55;80.25;100837.34;5032541;28;20433;-37
2022/11/14 05:38:47;;;;;;;91.90;46.20;;;;;;;8.10;76.60;100848.56;5032582;28;20245;-37
2022/11/14 05:41:16;;;;;;;65.20;33.30;;;;;;;8.45;74.67;100854.63;5032423;28;20112;-37
2022/11/14 05:43:41;;;;;;;46.08;23.85;;;;;;;8.67;73.26;100851.38;5032494;28;20029;-37
2022/11/14 05:46:10;;;;;;;39.92;19.10;;;;;;;8.87;72.87;100853.69;5032187;28;20029;-37
2022/11/14 05:48:36;;;;;;;32.75;19.83;;;;;;;9.15;72.14;100848.88;5031516;28;20033;-36
2022/11/14 05:51:04;;;;;;;38.45;21.83;;;;;;;9.58;69.86;100862.78;5030953;28;20409;-36
2022/11/14 05:53:32;;;;;;;50.85;30.88;;;;;;;9.67;68.66;100864.44;5029383;28;20076;-36
2022/11/14 05:56:03;;;;;;;56.85;33.70;;;;;;;10.08;67.72;100866.13;5029623;28;20120;-36
2022/11/14 05:58:30;;;;;;;43.17;23.67;;;;;;;10.04;68.40;100870.94;5029996;28;20048;-35
2022/11/14 06:01:11;;;;;;;37.05;22.77;;;;;;;10.51;66.31;100867.44;5030656;28;20060;-37
2022/11/14 06:03:39;;;;;;;84.80;45.25;;;;;;;10.66;65.56;100869.31;5030652;28;20102;-36
2022/11/14 06:06:06;;;;;;;35.78;16.85;;;;;;;10.72;63.48;100871.28;5031267;28;20105;-36
2022/11/14 06:08:33;;;;;;;21.52;13.70;;;;;;;10.85;63.84;100868.88;5031785;28;20482;-36
2022/11/14 06:11:09;;;;;;;20.45;13.40;;;;;;;11.12;62.50;100861.34;5031429;28;20505;-36
2022/11/14 06:13:35;;;;;;;20.35;12.68;;;;;;;11.36;61.12;100854.94;5031387;28;20055;-36
2022/11/14 06:16:02;;;;;;;24.83;13.63;;;;;;;11.42;60.83;100853.38;5031522;28;20026;-36
2022/11/14 06:18:29;;;;;;;24.55;14.23;;;;;;;11.58;60.87;100863.06;5031425;28;20155;-36
2022/11/14 06:20:59;;;;;;;33.63;17.90;;;;;;;11.60;59.43;100864.53;5031150;28;20025;-36
2022/11/14 06:23:24;;;;;;;34.60;17.70;;;;;;;10.65;62.43;100863.16;5030886;28;20046;-36
2022/11/14 06:25:50;;;;;;;29.13;14.85;;;;;;;11.21;62.63;100864.75;5031372;28;20033;-37
2022/11/14 06:28:15;;;;;;;23.75;14.05;;;;;;;11.68;62.99;100859.09;5031066;28;20405;-36
2022/11/14 06:30:40;;;;;;;41.03;22.23;;;;;;;12.40;60.78;100859.44;5030887;28;20413;-36
2022/11/14 06:33:06;;;;;;;34.33;19.92;;;;;;;12.99;58.97;100863.72;5030811;28;20074;-35
2022/11/14 06:35:32;;;;;;;44.00;20.90;;;;;;;13.40;56.83;100855.88;5030997;28;20044;-36
2022/11/14 06:37:58;;;;;;;40.78;19.50;;;;;;;13.52;56.61;100856.16;5030923;28;20098;-35
2022/11/14 06:40:24;;;;;;;30.63;16.90;;;;;;;13.73;56.60;100857.09;5030130;28;20014;-36
2022/11/14 06:42:49;;;;;;;23.88;13.57;;;;;;;13.99;55.33;100861.75;5030806;28;20024;-37
2022/11/14 06:45:15;;;;;;;29.25;17.00;;;;;;;14.26;54.14;100866.22;5024093;28;20017;-37
2022/11/14 06:47:40;;;;;;;20.42;13.15;;;;;;;14.47;51.63;100870.59;5029806;28;20036;-37
2022/11/14 06:50:06;;;;;;;24.98;14.60;;;;;;;14.36;53.28;100857.78;5030545;28;20024;-36
2022/11/14 06:52:31;;;;;;;22.10;13.93;;;;;;;14.54;52.37;100859.88;5030390;28;20025;-37
2022/11/14 06:54:57;;;;;;;24.55;14.13;;;;;;;14.86;51.89;100858.34;5030314;28;20017;-37
2022/11/14 06:57:22;;;;;;;26.60;14.88;;;;;;;15.28;51.32;100852.78;5030614;28;20441;-38
2022/11/14 06:59:48;;;;;;;29.70;15.43;;;;;;;15.57;50.92;100851.53;5030323;28;20032;-38
2022/11/14 07:02:13;;;;;;;26.08;14.77;;;;;;;15.67;49.87;100853.75;5030152;28;20147;-37
2022/11/14 07:04:38;;;;;;;28.30;14.90;;;;;;;15.88;48.89;100858.06;5030476;28;20021;-37
2022/11/14 07:07:04;;;;;;;26.63;14.25;;;;;;;16.03;48.89;100849.78;5028243;28;20044;-37
2022/11/14 07:09:29;;;;;;;31.52;17.13;;;;;;;16.04;46.75;100854.09;5029672;28;20087;-37
2022/11/14 07:11:55;;;;;;;25.58;14.90;;;;;;;15.71;46.83;100852.31;5030063;28;20094;-37
2022/11/14 07:14:20;;;;;;;26.33;16.13;;;;;;;15.31;48.33;100859.59;5029843;28;20049;-38
2022/11/14 07:16:46;;;;;;;31.58;16.95;;;;;;;15.38;48.89;100861.25;5030207;28;20029;-38
2022/11/14 07:19:12;;;;;;;29.15;17.13;;;;;;;15.31;48.49;100860.41;5030028;28;20018;-37
2022/11/14 07:21:37;;;;;;;33.75;17.88;;;;;;;15.22;48.03;100857.09;5029558;28;20024;-37
2022/11/14 07:24:03;;;;;;;29.92;16.95;;;;;;;15.24;47.43;100868.44;5030001;28;20053;-36
2022/11/14 07:26:30;;;;;;;33.40;16.42;;;;;;;15.23;48.65;100866.81;5030350;28;20304;-37
2022/11/14 07:28:56;;;;;;;27.25;15.13;;;;;;;15.15;48.51;100871.56;5030383;28;20039;-37
2022/11/14 07:31:21;;;;;;;26.27;15.15;;;;;;;15.59;49.40;100856.66;5030051;28;20061;-37
2022/11/14 07:33:47;;;;;;;21.05;14.13;;;;;;;15.59;47.82;100853.97;5029726;28;20500;-36
2022/11/14 07:36:13;;;;;;;28.10;14.55;;;;;;;16.03;47.08;100849.78;5030130;28;20513;-36
2022/11/14 07:38:39;;;;;;;22.35;13.45;;;;;;;16.59;46.86;100848.25;5030180;28;20025;-36
2022/11/14 07:41:15;;;;;;;24.70;14.18;;;;;;;16.96;45.29;100851.09;5030530;28;20025;-38
2022/11/14 07:43:41;;;;;;;24.25;14.90;;;;;;;16.92;44.96;100834.59;5030094;28;20501;-38
2022/11/14 07:46:09;;;;;;;26.70;16.35;;;;;;;17.14;45.38;100842.28;5030248;28;20032;-37
2022/11/14 07:48:34;;;;;;;22.98;14.52;;;;;;;17.19;47.02;100845.97;5030223;28;20057;-37
2022/11/14 07:51:00;;;;;;;19.85;13.00;;;;;;;17.63;44.43;100834.34;5029892;28;20473;-37
2022/11/14 07:53:27;;;;;;;22.42;13.15;;;;;;;18.06;44.71;100842.38;5029903;28;20032;-37
2022/11/14 07:55:52;;;;;;;19.83;13.80;;;;;;;17.86;43.75;100844.47;5030052;28;20108;-37
2022/11/14 07:58:18;;;;;;;36.53;21.77;;;;;;;17.90;43.87;100843.00;5030152;28;20036;-37
2022/11/14 08:00:44;;;;;;;27.63;16.17;;;;;;;18.14;44.32;100846.63;5029794;28;20033;-37
2022/11/14 08:03:09;;;;;;;18.23;12.60;;;;;;;17.93;43.49;100842.53;5029700;28;20040;-37
2022/11/14 08:05:35;;;;;;;23.40;15.00;;;;;;;18.27;44.10;100845.66;5030112;28;20114;-38
2022/11/14 08:08:00;;;;;;;22.42;13.07;;;;;;;18.28;42.88;100847.31;5030327;28;20021;-38
2022/11/14 08:10:26;;;;;;;17.83;12.95;;;;;;;18.69;42.23;100851.88;5029969;28;20033;-37
2022/11/14 08:13:00;;;;;;;22.55;12.07;;;;;;;18.84;41.88;100848.78;5029929;28;20021;-37
2022/11/14 08:15:26;;;;;;;23.25;13.23;;;;;;;18.87;42.67;100850.22;5030016;28;20047;-37
2022/11/14 08:17:51;;;;;;;23.92;15.73;;;;;;;18.91;42.71;100844.13;5031683;28;20520;-38
2022/11/14 08:20:16;;;;;;;22.83;14.85;;;;;;;19.27;42.19;100844.16;5033944;28;20112;-36
2022/11/14 08:22:42;;;;;;;22.63;14.95;;;;;;;19.61;41.57;100830.84;5033460;28;20041;-37
2022/11/14 08:25:07;;;;;;;17.45;12.23;;;;;;;19.20;41.50;100838.06;5033583;28;20049;-37
2022/11/14 08:27:33;;;;;;;18.58;13.65;;;;;;;19.42;41.30;100828.31;5033626;28;20492;-37
2022/11/14 08:29:58;;;;;;;19.05;13.13;;;;;;;19.43;41.93;100832.63;5033776;28;20485;-37
2022/11/14 08:32:24;;;;;;;20.30;12.15;;;;;;;19.42;41.49;100841.81;5033790;28;20395;-37
2022/11/14 08:34:49;;;;;;;15.98;11.30;;;;;;;19.76;41.06;100841.19;5033679;28;20465;-37
2022/11/14 08:37:14;;;;;;;15.90;11.93;;;;;;;19.42;40.60;100839.13;5033137;28;20467;-39
2022/11/14 08:39:40;;;;;;;17.48;11.13;;;;;;;19.35;41.35;100841.09;5033303;28;20025;-38
2022/11/14 08:42:05;;;;;;;17.23;11.07;;;;;;;19.85;40.41;100829.78;5033484;28;20017;-36
2022/11/14 08:44:31;;;;;;;14.13;10.45;;;;;;;19.78;40.77;100829.13;5033144;28;20438;-37
2022/11/14 08:46:59;;;;;;;16.35;11.13;;;;;;;19.37;40.94;100832.78;5033508;28;20045;-38
2022/11/14 08:49:25;;;;;;;15.93;11.15;;;;;;;19.61;40.49;100820.91;5033432;28;20096;-37
2022/11/14 08:51:51;;;;;;;14.02;10.63;;;;;;;19.78;40.37;100821.03;5033547;28;20114;-37
2022/11/14 08:54:17;;;;;;;16.88;11.13;;;;;;;19.58;40.48;100818.66;5033475;28;20022;-37
2022/11/14 08:56:43;;;;;;;13.85;10.73;;;;;;;19.53;40.73;100810.44;5032892;28;20029;-37
2022/11/14 08:59:08;;;;;;;15.93;11.45;;;;;;;19.72;40.00;100817.41;5032869;28;20021;-37
2022/11/14 09:01:33;;;;;;;12.80;10.02;;;;;;;20.11;39.83;100820.31;5032769;28;20513;-37
2022/11/14 09:03:59;;;;;;;14.80;10.18;;;;;;;19.97;39.14;100812.72;5032660;28;20022;-38
2022/11/14 09:06:25;;;;;;;14.20;9.82;;;;;;;19.84;39.15;100803.03;5032800;28;20036;-37
2022/11/14 09:08:50;;;;;;;13.68;10.18;;;;;;;19.45;39.68;100817.03;5032781;28;20504;-37
2022/11/14 09:11:16;;;;;;;15.05;10.07;;;;;;;19.79;39.21;100808.34;5032664;28;20024;-36
2022/11/14 09:13:41;;;;;;;16.33;10.52;;;;;;;19.06;39.59;100783.50;5032498;28;20024;-37
2022/11/14 09:16:07;;;;;;;18.38;10.85;;;;;;;19.14;39.94;100804.72;5032688;28;20032;-36
2022/11/14 09:18:32;;;;;;;13.73;10.02;;;;;;;19.58;39.70;100791.66;5032366;28;20026;-37
2022/11/14 09:21:06;;;;;;;13.48;10.02;;;;;;;19.43;39.46;100788.63;5032768;28;20251;-37
2022/11/14 09:23:32;;;;;;;12.13;10.05;;;;;;;19.41;39.81;100785.38;5032633;28;20099;-37
2022/11/14 09:26:02;;;;;;;17.27;10.95;;;;;;;19.24;39.34;100794.16;5033106;28;20513;-37
2022/11/14 09:28:27;;;;;;;19.70;11.82;;;;;;;19.32;39.76;100785.72;5031986;28;20129;-37
2022/11/14 09:30:53;;;;;;;15.40;10.60;;;;;;;19.48;40.45;100786.88;5032440;28;20021;-37
2022/11/14 09:33:18;;;;;;;19.13;11.30;;;;;;;20.18;39.40;100779.66;5032550;28;20029;-37
2022/11/14 09:35:43;;;;;;;16.75;10.98;;;;;;;20.32;37.88;100769.38;5032560;28;20549;-37
2022/11/14 09:38:10;;;;;;;15.55;11.30;;;;;;;19.47;39.13;100770.91;5032432;28;20497;-37
2022/11/14 09:41:15;;;;;;;14.32;10.57;;;;;;;19.57;39.00;100765.72;5032591;28;20084;-38
2022/11/14 09:44:03;;;;;;;16.42;11.20;;;;;;;19.16;39.49;100755.94;5032010;28;20095;-36
2022/11/14 09:46:38;;;;;;;15.23;11.40;;;;;;;19.06;40.26;100751.97;5032014;28;20025;-36
2022/11/14 09:49:18;;;;;;;15.10;11.40;;;;;;;17.96;41.89;100754.03;5032218;28;20125;-36
2022/11/14 09:51:49;;;;;;;16.33;12.30;;;;;;;18.21;42.42;100754.97;5031948;28;20061;-36
2022/11/14 09:54:27;;;;;;;18.98;11.57;;;;;;;18.43;41.56;100750.69;5031824;28;20071;-36
2022/11/14 09:56:53;;;;;;;17.90;11.88;;;;;;;17.56;43.35;100732.97;5031737;28;20056;-37
2022/11/14 09:59:18;;;;;;;15.93;12.25;;;;;;;17.70;43.66;100751.66;5031908;28;20111;-37
2022/11/14 10:02:12;;;;;;;23.63;13.85;;;;;;;17.74;44.91;100744.78;5031928;28;20108;-37
2022/11/14 10:05:13;;;;;;;17.55;12.07;;;;;;;18.45;43.04;100728.88;5031734;28;20174;-37
2022/11/14 10:07:45;;;;;;;24.40;12.98;;;;;;;18.28;42.62;100739.53;5024628;28;20045;-36
2022/11/14 10:10:29;;;;;;;23.90;14.45;;;;;;;18.05;44.42;100730.31;5031472;28;20021;-36
2022/11/14 10:13:12;;;;;;;22.40;15.05;;;;;;;18.60;43.46;100731.13;5031610;28;20501;-37
2022/11/14 10:16:13;;;;;;;21.58;13.55;;;;;;;18.91;42.09;100719.25;5031906;28;20029;-37
2022/11/14 10:18:57;;;;;;;20.55;14.55;;;;;;;18.35;43.66;100714.13;5009460;28;20061;-36
2022/11/14 10:21:35;;;;;;;21.67;14.02;;;;;;;18.34;43.17;100717.06;5029602;28;20484;-38
2022/11/14 10:24:22;;;;;;;18.70;13.55;;;;;;;17.26;45.81;100711.41;5031255;28;20100;-36
2022/11/14 10:27:04;;;;;;;23.10;14.13;;;;;;;17.20;46.78;100707.72;5031443;28;20062;-36
2022/11/14 10:29:45;;;;;;;21.58;14.85;;;;;;;18.35;43.47;100699.81;5031219;28;20033;-37
2022/11/14 10:32:42;;;;;;;20.42;14.13;;;;;;;18.41;43.94;100701.59;5030882;28;20025;-36
2022/11/14 10:35:17;;;;;;;19.80;14.00;;;;;;;17.55;45.73;100699.06;5029802;28;20053;-37
2022/11/14 10:38:06;;;;;;;18.88;13.05;;;;;;;17.62;46.02;100692.78;5031317;28;20025;-37
2022/11/14 10:40:46;;;;;;;17.52;13.07;;;;;;;18.23;44.44;100690.91;5030079;28;20032;-37
2022/11/14 10:43:15;;;;;;;24.10;16.48;;;;;;;18.21;45.01;100683.03;5030961;28;20044;-36
2022/11/14 10:45:46;;;;;;;22.00;14.27;;;;;;;17.68;45.42;100681.09;5030544;28;20049;-36
2022/11/14 10:48:16;;;;;;;19.17;14.57;;;;;;;17.85;45.16;100681.31;5031093;28;20029;-37
2022/11/14 10:50:44;;;;;;;21.70;14.60;;;;;;;17.59;45.68;100678.72;5030810;28;20026;-37
2022/11/14 10:53:25;;;;;;;21.45;14.38;;;;;;;17.46;46.46;100681.59;5030413;28;20064;-37
2022/11/14 10:55:53;;;;;;;19.95;14.00;;;;;;;17.86;45.43;100673.00;5030893;28;20333;-37
2022/11/14 10:58:20;;;;;;;24.70;13.48;;;;;;;18.10;45.06;100673.06;5030572;28;20029;-37
2022/11/14 11:00:45;;;;;;;17.30;13.13;;;;;;;17.71;46.04;100667.19;5028016;28;20029;-37
2022/11/14 11:03:10;;;;;;;18.10;12.82;;;;;;;17.61;45.96;100666.91;5030012;28;20030;-36
2022/11/14 11:05:49;;;;;;;18.83;13.68;;;;;;;17.29;47.19;100670.59;5029171;28;20021;-37
2022/11/14 11:11:29;;;;;;;21.02;14.27;;;;;;;17.91;45.63;100654.28;5030919;28;20426;-38
2022/11/14 11:13:56;;;;;;;20.10;13.85;;;;;;;17.41;47.05;100651.03;5030427;28;20026;-38
2022/11/14 11:16:24;;;;;;;20.48;14.13;;;;;;;17.42;47.61;100649.97;5030352;28;20131;-37
2022/11/14 11:18:50;;;;;;;19.85;13.88;;;;;;;17.78;46.67;100641.81;5030181;28;20481;-38
2022/11/14 11:21:18;;;;;;;18.65;13.55;;;;;;;18.00;46.18;100638.63;5030005;28;20029;-36